sensor_id;sensor_type;location;lat;lon;timestamp;P1;durP1;ratioP1;P2;durP2;ratioP2
13404;SDS011;6773;51.192;7.024;2022-09-09T00:06:54;3.45;;;2.17;;
13404;SDS011;6773;51.192;7.024;2022-09-09T00:09:44;3.57;;;2.10;;
13404;SDS011;6773;51.192;7.024;2022-09-09T00:14:55;2.65;;;2.13;;
13404;SDS011;6773;51.192;7.024;2022-09-09T00:20:47;2.80;;;2.30;;
13404;SDS011;6773;51.192;7.024;2022-09-09T00:23:27;5.43;;;2.40;;
13404;SDS011;6773;51.192;7.024;2022-09-09T00:26:09;5.23;;;2.63;;
13404;SDS011;6773;51.192;7.024;2022-09-09T00:31:35;5.17;;;2.10;;
13404;SDS011;6773;51.192;7.024;2022-09-09T00:34:21;3.43;;;2.50;;
13404;SDS011;6773;51.192;7.024;2022-09-09T00:36:49;3.60;;;2.40;;
13404;SDS011;6773;51.192;7.024;2022-09-09T00:39:33;7.03;;;2.37;;
13404;SDS011;6773;51.192;7.024;2022-09-09T00:42:19;4.53;;;2.40;;
13404;SDS011;6773;51.192;7.024;2022-09-09T00:58:06;4.37;;;2.57;;
13404;SDS011;6773;51.192;7.024;2022-09-09T01:03:30;2.93;;;2.20;;
13404;SDS011;6773;51.192;7.024;2022-09-09T01:11:25;7.77;;;2.40;;
13404;SDS011;6773;51.192;7.024;2022-09-09T01:14:00;9.30;;;3.33;;
13404;SDS011;6773;51.192;7.024;2022-09-09T01:16:43;5.13;;;2.37;;
13404;SDS011;6773;51.192;7.024;2022-09-09T01:19:10;3.47;;;2.37;;
13404;SDS011;6773;51.192;7.024;2022-09-09T01:22:08;5.90;;;2.47;;
13404;SDS011;6773;51.192;7.024;2022-09-09T01:24:45;2.10;;;1.90;;
13404;SDS011;6773;51.192;7.024;2022-09-09T01:27:38;4.60;;;2.50;;
13404;SDS011;6773;51.192;7.024;2022-09-09T01:30:13;4.33;;;2.40;;
13404;SDS011;6773;51.192;7.024;2022-09-09T01:32:51;4.70;;;2.20;;
13404;SDS011;6773;51.192;7.024;2022-09-09T01:37:55;5.73;;;2.30;;
13404;SDS011;6773;51.192;7.024;2022-09-09T01:40:21;8.03;;;2.33;;
13404;SDS011;6773;51.192;7.024;2022-09-09T01:42:47;2.47;;;2.00;;
13404;SDS011;6773;51.192;7.024;2022-09-09T01:45:13;3.80;;;2.20;;
13404;SDS011;6773;51.192;7.024;2022-09-09T01:47:39;9.37;;;3.07;;
13404;SDS011;6773;51.192;7.024;2022-09-09T01:50:05;3.50;;;2.30;;
13404;SDS011;6773;51.192;7.024;2022-09-09T01:52:33;5.17;;;2.33;;
13404;SDS011;6773;51.192;7.024;2022-09-09T01:55:01;5.57;;;2.30;;
13404;SDS011;6773;51.192;7.024;2022-09-09T02:00:07;4.77;;;2.20;;
13404;SDS011;6773;51.192;7.024;2022-09-09T02:02:36;3.40;;;2.47;;
13404;SDS011;6773;51.192;7.024;2022-09-09T02:05:20;2.80;;;2.10;;
13404;SDS011;6773;51.192;7.024;2022-09-09T02:07:49;4.50;;;2.20;;
13404;SDS011;6773;51.192;7.024;2022-09-09T02:10:21;3.90;;;1.90;;
13404;SDS011;6773;51.192;7.024;2022-09-09T02:13:14;2.13;;;1.80;;
13404;SDS011;6773;51.192;7.024;2022-09-09T02:18:36;2.17;;;1.90;;
13404;SDS011;6773;51.192;7.024;2022-09-09T02:21:16;2.10;;;1.57;;
13404;SDS011;6773;51.192;7.024;2022-09-09T02:23:43;3.23;;;2.10;;
13404;SDS011;6773;51.192;7.024;2022-09-09T02:26:12;3.63;;;1.90;;
13404;SDS011;6773;51.192;7.024;2022-09-09T02:28:44;4.47;;;2.00;;
13404;SDS011;6773;51.192;7.024;2022-09-09T02:31:12;4.47;;;2.23;;
13404;SDS011;6773;51.192;7.024;2022-09-09T02:33:41;3.40;;;1.93;;
13404;SDS011;6773;51.192;7.024;2022-09-09T02:36:10;2.90;;;2.03;;
13404;SDS011;6773;51.192;7.024;2022-09-09T02:38:41;3.90;;;2.10;;
13404;SDS011;6773;51.192;7.024;2022-09-09T02:41:11;4.97;;;2.17;;
13404;SDS011;6773;51.192;7.024;2022-09-09T02:43:36;2.63;;;1.70;;
13404;SDS011;6773;51.192;7.024;2022-09-09T02:46:18;3.33;;;1.60;;
13404;SDS011;6773;51.192;7.024;2022-09-09T02:49:18;6.43;;;1.70;;
13404;SDS011;6773;51.192;7.024;2022-09-09T02:52:07;3.80;;;1.53;;
13404;SDS011;6773;51.192;7.024;2022-09-09T02:54:33;3.10;;;1.80;;
13404;SDS011;6773;51.192;7.024;2022-09-09T02:59:48;3.70;;;2.20;;
13404;SDS011;6773;51.192;7.024;2022-09-09T03:02:15;2.13;;;1.80;;
13404;SDS011;6773;51.192;7.024;2022-09-09T03:04:41;3.07;;;1.73;;
13404;SDS011;6773;51.192;7.024;2022-09-09T03:07:09;4.27;;;1.80;;
13404;SDS011;6773;51.192;7.024;2022-09-09T03:09:37;1.73;;;1.57;;
13404;SDS011;6773;51.192;7.024;2022-09-09T03:12:03;3.37;;;1.60;;
13404;SDS011;6773;51.192;7.024;2022-09-09T03:14:29;4.07;;;1.87;;
13404;SDS011;6773;51.192;7.024;2022-09-09T03:16:56;3.67;;;1.80;;
13404;SDS011;6773;51.192;7.024;2022-09-09T03:19:25;4.73;;;2.10;;
13404;SDS011;6773;51.192;7.024;2022-09-09T03:21:52;3.27;;;2.03;;
13404;SDS011;6773;51.192;7.024;2022-09-09T03:24:19;3.60;;;1.83;;
13404;SDS011;6773;51.192;7.024;2022-09-09T03:26:44;3.27;;;1.80;;
13404;SDS011;6773;51.192;7.024;2022-09-09T03:29:11;3.20;;;1.97;;
13404;SDS011;6773;51.192;7.024;2022-09-09T03:31:37;3.83;;;2.07;;
13404;SDS011;6773;51.192;7.024;2022-09-09T03:34:03;3.43;;;2.10;;
13404;SDS011;6773;51.192;7.024;2022-09-09T03:36:30;3.40;;;2.07;;
13404;SDS011;6773;51.192;7.024;2022-09-09T03:38:56;6.47;;;2.40;;
13404;SDS011;6773;51.192;7.024;2022-09-09T03:41:22;6.53;;;2.10;;
13404;SDS011;6773;51.192;7.024;2022-09-09T03:43:49;3.03;;;2.20;;
13404;SDS011;6773;51.192;7.024;2022-09-09T03:46:18;4.17;;;2.17;;
13404;SDS011;6773;51.192;7.024;2022-09-09T03:48:45;1.90;;;1.73;;
13404;SDS011;6773;51.192;7.024;2022-09-09T03:51:11;4.70;;;2.20;;
13404;SDS011;6773;51.192;7.024;2022-09-09T03:53:38;5.67;;;2.40;;
13404;SDS011;6773;51.192;7.024;2022-09-09T03:56:04;4.83;;;2.07;;
13404;SDS011;6773;51.192;7.024;2022-09-09T03:58:32;2.53;;;2.00;;
13404;SDS011;6773;51.192;7.024;2022-09-09T04:03:24;6.47;;;2.03;;
13404;SDS011;6773;51.192;7.024;2022-09-09T04:05:51;3.90;;;1.77;;
13404;SDS011;6773;51.192;7.024;2022-09-09T04:08:17;5.60;;;2.13;;
13404;SDS011;6773;51.192;7.024;2022-09-09T04:10:44;3.67;;;2.43;;
13404;SDS011;6773;51.192;7.024;2022-09-09T04:13:11;5.23;;;2.30;;
13404;SDS011;6773;51.192;7.024;2022-09-09T04:15:39;5.43;;;2.30;;
13404;SDS011;6773;51.192;7.024;2022-09-09T04:18:04;4.73;;;1.90;;
13404;SDS011;6773;51.192;7.024;2022-09-09T04:20:31;5.00;;;1.77;;
13404;SDS011;6773;51.192;7.024;2022-09-09T04:22:57;5.07;;;2.30;;
13404;SDS011;6773;51.192;7.024;2022-09-09T04:25:23;3.57;;;1.80;;
13404;SDS011;6773;51.192;7.024;2022-09-09T04:27:53;3.53;;;2.00;;
13404;SDS011;6773;51.192;7.024;2022-09-09T04:30:19;7.00;;;2.03;;
13404;SDS011;6773;51.192;7.024;2022-09-09T04:32:45;5.03;;;2.20;;
13404;SDS011;6773;51.192;7.024;2022-09-09T04:35:11;4.83;;;2.10;;
13404;SDS011;6773;51.192;7.024;2022-09-09T04:37:37;9.30;;;2.20;;
13404;SDS011;6773;51.192;7.024;2022-09-09T04:40:03;5.43;;;2.00;;
13404;SDS011;6773;51.192;7.024;2022-09-09T04:42:29;6.87;;;1.93;;
13404;SDS011;6773;51.192;7.024;2022-09-09T04:44:54;4.33;;;2.17;;
13404;SDS011;6773;51.192;7.024;2022-09-09T04:47:20;5.33;;;1.87;;
13404;SDS011;6773;51.192;7.024;2022-09-09T04:49:46;3.53;;;1.90;;
13404;SDS011;6773;51.192;7.024;2022-09-09T04:52:12;6.93;;;2.10;;
13404;SDS011;6773;51.192;7.024;2022-09-09T04:54:37;3.70;;;2.17;;
13404;SDS011;6773;51.192;7.024;2022-09-09T04:57:04;4.43;;;2.10;;
13404;SDS011;6773;51.192;7.024;2022-09-09T04:59:30;2.87;;;1.90;;
13404;SDS011;6773;51.192;7.024;2022-09-09T05:01:55;2.17;;;1.63;;
13404;SDS011;6773;51.192;7.024;2022-09-09T05:04:21;5.70;;;2.13;;
13404;SDS011;6773;51.192;7.024;2022-09-09T05:06:46;4.43;;;2.00;;
13404;SDS011;6773;51.192;7.024;2022-09-09T05:09:13;5.53;;;2.13;;
13404;SDS011;6773;51.192;7.024;2022-09-09T05:11:39;4.60;;;1.93;;
13404;SDS011;6773;51.192;7.024;2022-09-09T05:14:04;3.10;;;1.90;;
13404;SDS011;6773;51.192;7.024;2022-09-09T05:16:30;3.87;;;2.33;;
13404;SDS011;6773;51.192;7.024;2022-09-09T05:18:56;4.60;;;1.70;;
13404;SDS011;6773;51.192;7.024;2022-09-09T05:21:23;4.17;;;1.90;;
13404;SDS011;6773;51.192;7.024;2022-09-09T05:23:51;3.77;;;2.00;;
13404;SDS011;6773;51.192;7.024;2022-09-09T05:26:18;2.83;;;2.03;;
13404;SDS011;6773;51.192;7.024;2022-09-09T05:28:46;3.83;;;1.90;;
13404;SDS011;6773;51.192;7.024;2022-09-09T05:31:12;4.33;;;2.10;;
13404;SDS011;6773;51.192;7.024;2022-09-09T05:33:39;2.60;;;2.20;;
13404;SDS011;6773;51.192;7.024;2022-09-09T05:36:08;4.87;;;2.00;;
13404;SDS011;6773;51.192;7.024;2022-09-09T05:38:38;3.03;;;1.90;;
13404;SDS011;6773;51.192;7.024;2022-09-09T05:41:05;4.33;;;1.80;;
13404;SDS011;6773;51.192;7.024;2022-09-09T05:43:32;4.37;;;2.00;;
13404;SDS011;6773;51.192;7.024;2022-09-09T05:46:19;3.43;;;2.00;;
13404;SDS011;6773;51.192;7.024;2022-09-09T05:48:47;5.90;;;2.47;;
13404;SDS011;6773;51.192;7.024;2022-09-09T05:51:16;3.93;;;2.17;;
13404;SDS011;6773;51.192;7.024;2022-09-09T05:53:44;4.27;;;2.00;;
13404;SDS011;6773;51.192;7.024;2022-09-09T05:56:11;3.77;;;2.00;;
13404;SDS011;6773;51.192;7.024;2022-09-09T05:58:44;5.60;;;2.10;;
13404;SDS011;6773;51.192;7.024;2022-09-09T06:01:21;3.07;;;2.00;;
13404;SDS011;6773;51.192;7.024;2022-09-09T06:03:49;4.10;;;1.87;;
13404;SDS011;6773;51.192;7.024;2022-09-09T06:06:16;2.03;;;1.77;;
13404;SDS011;6773;51.192;7.024;2022-09-09T06:08:45;4.97;;;2.17;;
13404;SDS011;6773;51.192;7.024;2022-09-09T06:11:21;3.60;;;1.90;;
13404;SDS011;6773;51.192;7.024;2022-09-09T06:13:48;4.27;;;2.83;;
13404;SDS011;6773;51.192;7.024;2022-09-09T06:16:18;5.67;;;2.40;;
13404;SDS011;6773;51.192;7.024;2022-09-09T06:18:47;3.50;;;1.90;;
13404;SDS011;6773;51.192;7.024;2022-09-09T06:23:40;3.17;;;2.07;;
13404;SDS011;6773;51.192;7.024;2022-09-09T06:26:07;4.97;;;2.30;;
13404;SDS011;6773;51.192;7.024;2022-09-09T06:28:35;2.93;;;1.80;;
13404;SDS011;6773;51.192;7.024;2022-09-09T06:31:02;3.50;;;2.17;;
13404;SDS011;6773;51.192;7.024;2022-09-09T06:33:33;4.70;;;2.53;;
13404;SDS011;6773;51.192;7.024;2022-09-09T06:36:01;6.53;;;1.87;;
13404;SDS011;6773;51.192;7.024;2022-09-09T06:38:29;5.73;;;2.10;;
13404;SDS011;6773;51.192;7.024;2022-09-09T06:40:56;3.30;;;1.80;;
13404;SDS011;6773;51.192;7.024;2022-09-09T06:43:23;5.57;;;2.00;;
13404;SDS011;6773;51.192;7.024;2022-09-09T06:45:57;4.80;;;1.80;;
13404;SDS011;6773;51.192;7.024;2022-09-09T06:48:24;4.07;;;1.93;;
13404;SDS011;6773;51.192;7.024;2022-09-09T06:51:06;3.73;;;1.80;;
13404;SDS011;6773;51.192;7.024;2022-09-09T06:53:33;2.67;;;1.93;;
13404;SDS011;6773;51.192;7.024;2022-09-09T06:56:13;2.90;;;1.90;;
13404;SDS011;6773;51.192;7.024;2022-09-09T06:58:56;4.63;;;2.10;;
13404;SDS011;6773;51.192;7.024;2022-09-09T07:01:27;3.60;;;1.70;;
13404;SDS011;6773;51.192;7.024;2022-09-09T07:03:55;5.77;;;1.77;;
13404;SDS011;6773;51.192;7.024;2022-09-09T07:06:27;2.67;;;1.90;;
13404;SDS011;6773;51.192;7.024;2022-09-09T07:08:58;4.60;;;1.67;;
13404;SDS011;6773;51.192;7.024;2022-09-09T07:11:29;4.43;;;2.20;;
13404;SDS011;6773;51.192;7.024;2022-09-09T07:14:06;3.27;;;1.90;;
13404;SDS011;6773;51.192;7.024;2022-09-09T07:16:32;2.73;;;1.77;;
13404;SDS011;6773;51.192;7.024;2022-09-09T07:19:00;2.03;;;1.80;;
13404;SDS011;6773;51.192;7.024;2022-09-09T07:21:27;3.27;;;1.90;;
13404;SDS011;6773;51.192;7.024;2022-09-09T07:23:54;3.77;;;1.70;;
13404;SDS011;6773;51.192;7.024;2022-09-09T07:26:21;2.60;;;1.73;;
13404;SDS011;6773;51.192;7.024;2022-09-09T07:28:49;5.73;;;1.80;;
13404;SDS011;6773;51.192;7.024;2022-09-09T07:33:41;2.90;;;1.50;;
13404;SDS011;6773;51.192;7.024;2022-09-09T07:38:41;3.83;;;1.80;;
13404;SDS011;6773;51.192;7.024;2022-09-09T07:41:10;3.73;;;1.80;;
13404;SDS011;6773;51.192;7.024;2022-09-09T07:43:41;3.60;;;1.75;;
13404;SDS011;6773;51.192;7.024;2022-09-09T07:46:08;4.00;;;1.87;;
13404;SDS011;6773;51.192;7.024;2022-09-09T07:48:35;5.60;;;2.00;;
13404;SDS011;6773;51.192;7.024;2022-09-09T07:51:08;4.22;;;1.70;;
13404;SDS011;6773;51.192;7.024;2022-09-09T07:53:36;4.03;;;1.80;;
13404;SDS011;6773;51.192;7.024;2022-09-09T07:56:06;2.38;;;1.60;;
13404;SDS011;6773;51.192;7.024;2022-09-09T07:58:35;3.05;;;1.77;;
13404;SDS011;6773;51.192;7.024;2022-09-09T08:01:08;4.05;;;1.90;;
13404;SDS011;6773;51.192;7.024;2022-09-09T08:03:39;5.43;;;1.90;;
13404;SDS011;6773;51.192;7.024;2022-09-09T08:06:06;4.93;;;1.73;;
13404;SDS011;6773;51.192;7.024;2022-09-09T08:08:34;5.55;;;2.30;;
13404;SDS011;6773;51.192;7.024;2022-09-09T08:11:04;2.67;;;1.60;;
13404;SDS011;6773;51.192;7.024;2022-09-09T08:13:40;5.90;;;1.50;;
13404;SDS011;6773;51.192;7.024;2022-09-09T08:16:08;5.18;;;1.92;;
13404;SDS011;6773;51.192;7.024;2022-09-09T08:18:36;4.28;;;1.50;;
13404;SDS011;6773;51.192;7.024;2022-09-09T08:21:12;4.32;;;1.63;;
13404;SDS011;6773;51.192;7.024;2022-09-09T08:23:46;3.45;;;1.73;;
13404;SDS011;6773;51.192;7.024;2022-09-09T08:26:18;3.72;;;1.65;;
13404;SDS011;6773;51.192;7.024;2022-09-09T08:28:47;3.47;;;1.50;;
13404;SDS011;6773;51.192;7.024;2022-09-09T08:31:24;4.78;;;1.75;;
13404;SDS011;6773;51.192;7.024;2022-09-09T08:33:53;3.97;;;1.60;;
13404;SDS011;6773;51.192;7.024;2022-09-09T08:36:20;6.90;;;2.10;;
13404;SDS011;6773;51.192;7.024;2022-09-09T08:38:50;3.15;;;1.70;;
13404;SDS011;6773;51.192;7.024;2022-09-09T08:44:23;3.80;;;1.67;;
13404;SDS011;6773;51.192;7.024;2022-09-09T08:52:24;3.55;;;1.73;;
13404;SDS011;6773;51.192;7.024;2022-09-09T08:54:55;6.18;;;1.95;;
13404;SDS011;6773;51.192;7.024;2022-09-09T08:57:28;4.28;;;1.70;;
13404;SDS011;6773;51.192;7.024;2022-09-09T08:59:56;3.05;;;1.90;;
13404;SDS011;6773;51.192;7.024;2022-09-09T09:02:34;2.20;;;1.35;;
13404;SDS011;6773;51.192;7.024;2022-09-09T09:11:03;2.67;;;1.60;;
13404;SDS011;6773;51.192;7.024;2022-09-09T09:16:29;4.13;;;1.48;;
13404;SDS011;6773;51.192;7.024;2022-09-09T09:19:03;4.35;;;2.05;;
13404;SDS011;6773;51.192;7.024;2022-09-09T09:27:32;2.65;;;1.30;;
13404;SDS011;6773;51.192;7.024;2022-09-09T09:30:01;1.70;;;1.13;;
13404;SDS011;6773;51.192;7.024;2022-09-09T09:32:55;3.60;;;1.75;;
13404;SDS011;6773;51.192;7.024;2022-09-09T09:35:41;2.22;;;1.33;;
13404;SDS011;6773;51.192;7.024;2022-09-09T09:38:17;6.30;;;1.40;;
13404;SDS011;6773;51.192;7.024;2022-09-09T09:40:57;2.88;;;1.35;;
13404;SDS011;6773;51.192;7.024;2022-09-09T09:43:27;1.20;;;1.00;;
13404;SDS011;6773;51.192;7.024;2022-09-09T09:46:03;1.80;;;1.20;;
13404;SDS011;6773;51.192;7.024;2022-09-09T09:48:29;2.33;;;1.20;;
13404;SDS011;6773;51.192;7.024;2022-09-09T09:50:59;3.15;;;1.48;;
13404;SDS011;6773;51.192;7.024;2022-09-09T09:53:36;2.38;;;1.15;;
13404;SDS011;6773;51.192;7.024;2022-09-09T09:56:04;1.13;;;1.02;;
13404;SDS011;6773;51.192;7.024;2022-09-09T09:58:33;1.25;;;1.02;;
13404;SDS011;6773;51.192;7.024;2022-09-09T10:01:31;3.67;;;1.30;;
13404;SDS011;6773;51.192;7.024;2022-09-09T10:04:01;1.10;;;1.05;;
13404;SDS011;6773;51.192;7.024;2022-09-09T10:06:38;2.08;;;1.05;;
13404;SDS011;6773;51.192;7.024;2022-09-09T10:09:20;2.70;;;1.20;;
13404;SDS011;6773;51.192;7.024;2022-09-09T10:11:54;2.10;;;1.10;;
13404;SDS011;6773;51.192;7.024;2022-09-09T10:17:09;2.78;;;1.40;;
13404;SDS011;6773;51.192;7.024;2022-09-09T10:22:52;3.10;;;1.23;;
13404;SDS011;6773;51.192;7.024;2022-09-09T10:25:41;1.42;;;1.20;;
13404;SDS011;6773;51.192;7.024;2022-09-09T10:34:37;2.63;;;1.20;;
13404;SDS011;6773;51.192;7.024;2022-09-09T10:36:57;3.22;;;1.33;;
13404;SDS011;6773;51.192;7.024;2022-09-09T10:42:12;3.10;;;1.17;;
13404;SDS011;6773;51.192;7.024;2022-09-09T10:57:45;4.65;;;1.27;;
13404;SDS011;6773;51.192;7.024;2022-09-09T11:00:15;1.95;;;1.25;;
13404;SDS011;6773;51.192;7.024;2022-09-09T11:02:44;4.57;;;1.35;;
13404;SDS011;6773;51.192;7.024;2022-09-09T11:05:24;4.50;;;1.27;;
13404;SDS011;6773;51.192;7.024;2022-09-09T11:08:01;2.97;;;1.30;;
13404;SDS011;6773;51.192;7.024;2022-09-09T11:16:19;2.72;;;1.48;;
13404;SDS011;6773;51.192;7.024;2022-09-09T11:19:02;5.65;;;1.52;;
13404;SDS011;6773;51.192;7.024;2022-09-09T11:21:45;5.82;;;1.25;;
13404;SDS011;6773;51.192;7.024;2022-09-09T11:24:23;2.10;;;1.25;;
13404;SDS011;6773;51.192;7.024;2022-09-09T11:29:57;1.65;;;1.23;;
13404;SDS011;6773;51.192;7.024;2022-09-09T11:35:33;1.73;;;1.10;;
13404;SDS011;6773;51.192;7.024;2022-09-09T11:38:16;2.70;;;1.23;;
13404;SDS011;6773;51.192;7.024;2022-09-09T11:40:55;2.80;;;1.30;;
13404;SDS011;6773;51.192;7.024;2022-09-09T11:43:31;2.67;;;1.33;;
13404;SDS011;6773;51.192;7.024;2022-09-09T11:46:04;1.05;;;0.95;;
13404;SDS011;6773;51.192;7.024;2022-09-09T11:51:11;1.88;;;1.10;;
13404;SDS011;6773;51.192;7.024;2022-09-09T11:53:50;1.83;;;1.10;;
13404;SDS011;6773;51.192;7.024;2022-09-09T11:56:28;4.45;;;1.30;;
13404;SDS011;6773;51.192;7.024;2022-09-09T12:01:37;2.83;;;1.30;;
13404;SDS011;6773;51.192;7.024;2022-09-09T12:07:02;2.78;;;1.30;;
13404;SDS011;6773;51.192;7.024;2022-09-09T12:09:50;2.85;;;1.40;;
13404;SDS011;6773;51.192;7.024;2022-09-09T12:17:37;1.92;;;1.30;;
13404;SDS011;6773;51.192;7.024;2022-09-09T12:20:12;2.15;;;1.33;;
13404;SDS011;6773;51.192;7.024;2022-09-09T12:27:55;4.28;;;1.40;;
13404;SDS011;6773;51.192;7.024;2022-09-09T12:30:30;2.92;;;1.20;;
13404;SDS011;6773;51.192;7.024;2022-09-09T12:33:19;4.35;;;1.27;;
13404;SDS011;6773;51.192;7.024;2022-09-09T12:35:51;3.20;;;1.17;;
13404;SDS011;6773;51.192;7.024;2022-09-09T12:38:27;4.05;;;1.33;;
13404;SDS011;6773;51.192;7.024;2022-09-09T12:41:05;1.70;;;1.10;;
13404;SDS011;6773;51.192;7.024;2022-09-09T12:43:31;3.53;;;1.35;;
13404;SDS011;6773;51.192;7.024;2022-09-09T12:46:00;2.92;;;1.50;;
13404;SDS011;6773;51.192;7.024;2022-09-09T12:48:36;2.25;;;1.05;;
13404;SDS011;6773;51.192;7.024;2022-09-09T12:51:07;2.55;;;1.20;;
13404;SDS011;6773;51.192;7.024;2022-09-09T12:54:03;1.67;;;1.48;;
13404;SDS011;6773;51.192;7.024;2022-09-09T12:56:30;3.25;;;1.27;;
13404;SDS011;6773;51.192;7.024;2022-09-09T12:58:57;2.70;;;1.45;;
13404;SDS011;6773;51.192;7.024;2022-09-09T13:01:24;2.45;;;1.08;;
13404;SDS011;6773;51.192;7.024;2022-09-09T13:03:55;3.17;;;1.27;;
13404;SDS011;6773;51.192;7.024;2022-09-09T13:06:26;2.70;;;1.13;;
13404;SDS011;6773;51.192;7.024;2022-09-09T13:08:58;1.75;;;1.35;;
13404;SDS011;6773;51.192;7.024;2022-09-09T13:11:41;1.80;;;1.20;;
13404;SDS011;6773;51.192;7.024;2022-09-09T13:14:42;1.75;;;1.25;;
13404;SDS011;6773;51.192;7.024;2022-09-09T13:17:03;3.57;;;1.53;;
13404;SDS011;6773;51.192;7.024;2022-09-09T13:19:32;2.87;;;1.70;;
13404;SDS011;6773;51.192;7.024;2022-09-09T13:33:05;3.88;;;1.67;;
13404;SDS011;6773;51.192;7.024;2022-09-09T13:38:21;2.40;;;1.60;;
13404;SDS011;6773;51.192;7.024;2022-09-09T13:43:22;4.55;;;1.70;;
13404;SDS011;6773;51.192;7.024;2022-09-09T13:45:53;2.55;;;1.60;;
13404;SDS011;6773;51.192;7.024;2022-09-09T13:48:21;4.50;;;1.70;;
13404;SDS011;6773;51.192;7.024;2022-09-09T13:50:54;1.90;;;1.50;;
13404;SDS011;6773;51.192;7.024;2022-09-09T13:53:29;2.53;;;1.45;;
13404;SDS011;6773;51.192;7.024;2022-09-09T13:55:55;2.92;;;1.45;;
13404;SDS011;6773;51.192;7.024;2022-09-09T13:58:22;1.60;;;1.50;;
13404;SDS011;6773;51.192;7.024;2022-09-09T14:00:49;2.58;;;1.35;;
13404;SDS011;6773;51.192;7.024;2022-09-09T14:03:16;3.17;;;1.67;;
13404;SDS011;6773;51.192;7.024;2022-09-09T14:05:43;4.13;;;2.20;;
13404;SDS011;6773;51.192;7.024;2022-09-09T14:08:10;2.58;;;1.60;;
13404;SDS011;6773;51.192;7.024;2022-09-09T14:10:45;3.75;;;1.80;;
13404;SDS011;6773;51.192;7.024;2022-09-09T14:13:10;2.80;;;1.42;;
13404;SDS011;6773;51.192;7.024;2022-09-09T14:15:37;5.78;;;1.50;;
13404;SDS011;6773;51.192;7.024;2022-09-09T14:18:03;3.20;;;1.60;;
13404;SDS011;6773;51.192;7.024;2022-09-09T14:20:28;2.25;;;1.42;;
13404;SDS011;6773;51.192;7.024;2022-09-09T14:22:54;4.78;;;1.80;;
13404;SDS011;6773;51.192;7.024;2022-09-09T14:25:22;4.20;;;1.83;;
13404;SDS011;6773;51.192;7.024;2022-09-09T14:27:48;3.25;;;1.40;;
13404;SDS011;6773;51.192;7.024;2022-09-09T14:30:16;2.85;;;1.75;;
13404;SDS011;6773;51.192;7.024;2022-09-09T14:32:41;4.60;;;1.80;;
13404;SDS011;6773;51.192;7.024;2022-09-09T14:35:07;3.70;;;1.70;;
13404;SDS011;6773;51.192;7.024;2022-09-09T14:37:33;3.03;;;1.50;;
13404;SDS011;6773;51.192;7.024;2022-09-09T14:39:59;2.38;;;1.40;;
13404;SDS011;6773;51.192;7.024;2022-09-09T14:42:24;2.75;;;1.40;;
13404;SDS011;6773;51.192;7.024;2022-09-09T14:44:51;3.35;;;1.50;;
13404;SDS011;6773;51.192;7.024;2022-09-09T14:47:17;3.83;;;1.42;;
13404;SDS011;6773;51.192;7.024;2022-09-09T14:49:43;2.28;;;1.48;;
13404;SDS011;6773;51.192;7.024;2022-09-09T14:52:09;2.85;;;1.50;;
13404;SDS011;6773;51.192;7.024;2022-09-09T14:54:35;2.03;;;1.50;;
13404;SDS011;6773;51.192;7.024;2022-09-09T14:57:00;6.07;;;1.85;;
13404;SDS011;6773;51.192;7.024;2022-09-09T14:59:27;8.27;;;2.03;;
13404;SDS011;6773;51.192;7.024;2022-09-09T15:01:52;2.97;;;1.77;;
13404;SDS011;6773;51.192;7.024;2022-09-09T15:04:18;1.95;;;1.60;;
13404;SDS011;6773;51.192;7.024;2022-09-09T15:06:45;2.97;;;1.63;;
13404;SDS011;6773;51.192;7.024;2022-09-09T15:09:13;2.40;;;1.50;;
13404;SDS011;6773;51.192;7.024;2022-09-09T15:11:39;2.17;;;1.20;;
13404;SDS011;6773;51.192;7.024;2022-09-09T15:14:05;1.85;;;1.23;;
13404;SDS011;6773;51.192;7.024;2022-09-09T15:16:32;1.30;;;1.20;;
13404;SDS011;6773;51.192;7.024;2022-09-09T15:18:59;1.13;;;1.13;;
13404;SDS011;6773;51.192;7.024;2022-09-09T15:21:27;2.10;;;1.00;;
13404;SDS011;6773;51.192;7.024;2022-09-09T15:23:55;1.57;;;1.20;;
13404;SDS011;6773;51.192;7.024;2022-09-09T15:26:21;3.70;;;1.30;;
13404;SDS011;6773;51.192;7.024;2022-09-09T15:28:47;1.80;;;1.20;;
13404;SDS011;6773;51.192;7.024;2022-09-09T15:31:21;1.33;;;1.00;;
13404;SDS011;6773;51.192;7.024;2022-09-09T15:33:52;1.20;;;1.10;;
13404;SDS011;6773;51.192;7.024;2022-09-09T15:36:25;0.87;;;0.87;;
13404;SDS011;6773;51.192;7.024;2022-09-09T15:38:56;2.42;;;1.10;;
13404;SDS011;6773;51.192;7.024;2022-09-09T15:41:23;1.77;;;1.00;;
13404;SDS011;6773;51.192;7.024;2022-09-09T15:43:50;1.95;;;1.20;;
13404;SDS011;6773;51.192;7.024;2022-09-09T15:48:43;1.75;;;1.17;;
13404;SDS011;6773;51.192;7.024;2022-09-09T15:51:09;3.40;;;1.50;;
13404;SDS011;6773;51.192;7.024;2022-09-09T15:53:39;1.95;;;1.25;;
13404;SDS011;6773;51.192;7.024;2022-09-09T15:56:05;1.77;;;1.00;;
13404;SDS011;6773;51.192;7.024;2022-09-09T15:58:34;1.50;;;1.10;;
13404;SDS011;6773;51.192;7.024;2022-09-09T16:01:07;4.07;;;1.13;;
13404;SDS011;6773;51.192;7.024;2022-09-09T16:03:39;1.70;;;1.33;;
13404;SDS011;6773;51.192;7.024;2022-09-09T16:06:07;2.47;;;1.38;;
13404;SDS011;6773;51.192;7.024;2022-09-09T16:08:37;2.35;;;1.42;;
13404;SDS011;6773;51.192;7.024;2022-09-09T16:11:14;2.00;;;1.70;;
13404;SDS011;6773;51.192;7.024;2022-09-09T16:13:42;2.70;;;1.58;;
13404;SDS011;6773;51.192;7.024;2022-09-09T16:16:09;2.93;;;1.53;;
13404;SDS011;6773;51.192;7.024;2022-09-09T16:18:37;2.67;;;2.00;;
13404;SDS011;6773;51.192;7.024;2022-09-09T16:21:08;2.45;;;1.70;;
13404;SDS011;6773;51.192;7.024;2022-09-09T16:23:38;2.22;;;1.40;;
13404;SDS011;6773;51.192;7.024;2022-09-09T16:26:04;2.65;;;1.88;;
13404;SDS011;6773;51.192;7.024;2022-09-09T16:28:30;2.83;;;1.75;;
13404;SDS011;6773;51.192;7.024;2022-09-09T16:30:56;3.58;;;1.58;;
13404;SDS011;6773;51.192;7.024;2022-09-09T16:33:23;1.88;;;1.40;;
13404;SDS011;6773;51.192;7.024;2022-09-09T16:35:51;5.07;;;1.70;;
13404;SDS011;6773;51.192;7.024;2022-09-09T16:38:17;4.97;;;1.90;;
13404;SDS011;6773;51.192;7.024;2022-09-09T16:40:42;1.63;;;1.50;;
13404;SDS011;6773;51.192;7.024;2022-09-09T16:43:08;4.43;;;1.63;;
13404;SDS011;6773;51.192;7.024;2022-09-09T16:45:43;2.23;;;1.80;;
13404;SDS011;6773;51.192;7.024;2022-09-09T16:48:10;4.03;;;1.90;;
13404;SDS011;6773;51.192;7.024;2022-09-09T16:50:37;3.50;;;2.17;;
13404;SDS011;6773;51.192;7.024;2022-09-09T16:53:04;3.03;;;1.92;;
13404;SDS011;6773;51.192;7.024;2022-09-09T16:55:31;1.90;;;1.77;;
13404;SDS011;6773;51.192;7.024;2022-09-09T16:57:57;4.47;;;2.00;;
13404;SDS011;6773;51.192;7.024;2022-09-09T17:00:22;3.73;;;1.73;;
13404;SDS011;6773;51.192;7.024;2022-09-09T17:02:48;2.35;;;1.60;;
13404;SDS011;6773;51.192;7.024;2022-09-09T17:05:14;2.90;;;1.70;;
13404;SDS011;6773;51.192;7.024;2022-09-09T17:07:39;3.43;;;1.80;;
13404;SDS011;6773;51.192;7.024;2022-09-09T17:10:05;3.67;;;2.07;;
13404;SDS011;6773;51.192;7.024;2022-09-09T17:12:31;4.90;;;3.00;;
13404;SDS011;6773;51.192;7.024;2022-09-09T17:14:57;2.10;;;1.33;;
13404;SDS011;6773;51.192;7.024;2022-09-09T17:17:24;4.57;;;2.60;;
13404;SDS011;6773;51.192;7.024;2022-09-09T17:19:51;1.80;;;1.67;;
13404;SDS011;6773;51.192;7.024;2022-09-09T17:22:17;6.77;;;2.30;;
13404;SDS011;6773;51.192;7.024;2022-09-09T17:24:43;6.07;;;1.97;;
13404;SDS011;6773;51.192;7.024;2022-09-09T17:27:10;1.50;;;1.40;;
13404;SDS011;6773;51.192;7.024;2022-09-09T17:29:36;3.10;;;2.30;;
13404;SDS011;6773;51.192;7.024;2022-09-09T17:32:02;2.30;;;1.60;;
13404;SDS011;6773;51.192;7.024;2022-09-09T17:34:30;1.57;;;1.47;;
13404;SDS011;6773;51.192;7.024;2022-09-09T17:36:56;2.97;;;1.70;;
13404;SDS011;6773;51.192;7.024;2022-09-09T17:39:21;1.67;;;1.57;;
13404;SDS011;6773;51.192;7.024;2022-09-09T17:41:47;7.63;;;1.90;;
13404;SDS011;6773;51.192;7.024;2022-09-09T17:44:14;3.30;;;1.70;;
13404;SDS011;6773;51.192;7.024;2022-09-09T17:46:41;3.27;;;2.00;;
13404;SDS011;6773;51.192;7.024;2022-09-09T17:49:11;2.40;;;1.90;;
13404;SDS011;6773;51.192;7.024;2022-09-09T17:51:39;2.17;;;1.77;;
13404;SDS011;6773;51.192;7.024;2022-09-09T17:54:11;3.07;;;1.53;;
13404;SDS011;6773;51.192;7.024;2022-09-09T17:56:38;3.73;;;2.00;;